Time;durP1;ratioP1;P1;durP2;ratioP2;P2;SDS_P1;SDS_P2;PMS_P1;PMS_P2;Temp;Humidity;BMP_temperature;BMP_pressure;BME280_temperature;BME280_humidity;BME280_pressure;Samples;Min_cycle;Max_cycle;Signal;HPM_P1;HPM_P2
2021/07/27 00:01:11;;;;;;;;;;;15.40;99.90;;;;;;5093315;28;19908;-87
2021/07/27 00:03:37;;;;;;;;;;;15.50;99.90;;;;;;5076713;28;19952;-87
2021/07/27 00:06:06;;;;;;;;;;;15.50;99.90;;;;;;5094302;28;20007;-87
2021/07/27 00:08:32;;;;;;;;;;;15.50;99.90;;;;;;5094583;28;20053;-87
2021/07/27 00:11:01;;;;;;;;;;;15.60;99.90;;;;;;5094370;28;20379;-87
2021/07/27 00:13:26;;;;;;;;;;;15.60;99.90;;;;;;5068008;28;19915;-87
2021/07/27 00:15:51;;;;;;;;;;;15.60;99.90;;;;;;5077819;28;19912;-87
2021/07/27 00:18:17;;;;;;;;;;;15.50;99.90;;;;;;5076180;28;19930;-86
2021/07/27 00:20:42;;;;;;;;;;;15.50;99.90;;;;;;5076090;28;19908;-87
2021/07/27 00:23:08;;;;;;;;;;;15.50;99.90;;;;;;5076219;28;19938;-88
2021/07/27 00:25:34;;;;;;;;;;;15.50;99.90;;;;;;5076145;28;19908;-88
2021/07/27 00:27:59;;;;;;;;;;;15.50;99.90;;;;;;5093971;28;20366;-87
2021/07/27 00:30:25;;;;;;;;;;;15.40;99.90;;;;;;5076248;28;20015;-87
2021/07/27 00:32:50;;;;;;;;;;;15.40;99.90;;;;;;5075446;28;20290;-87
2021/07/27 00:35:16;;;;;;;;;;;15.30;99.90;;;;;;5075508;28;19912;-87
2021/07/27 00:37:44;;;;;;;;;;;15.30;99.90;;;;;;5074982;28;19916;-87
2021/07/27 00:40:10;;;;;;;;;;;15.30;99.90;;;;;;5075720;28;19923;-87
2021/07/27 00:42:43;;;;;;;;;;;15.30;99.90;;;;;;5075184;28;19970;-87
2021/07/27 00:45:08;;;;;;;;;;;15.30;99.90;;;;;;5068030;28;20401;-88
2021/07/27 00:47:34;;;;;;;;;;;15.30;99.90;;;;;;5075466;28;19908;-87
2021/07/27 00:49:59;;;;;;;;;;;15.30;99.90;;;;;;5075593;28;19914;-87
2021/07/27 00:52:25;;;;;;;;;;;15.30;99.90;;;;;;5092958;28;20320;-88
2021/07/27 00:54:51;;;;;;;;;;;15.30;99.90;;;;;;5066971;28;19908;-87
2021/07/27 00:57:16;;;;;;;;;;;15.30;99.90;;;;;;5075281;28;20396;-87
2021/07/27 00:59:43;;;;;;;;;;;15.30;99.90;;;;;;5092290;28;20015;-87
2021/07/27 01:02:08;;;;;;;;;;;15.30;99.90;;;;;;5075362;28;19977;-88
2021/07/27 01:04:34;;;;;;;;;;;15.30;99.90;;;;;;5092523;28;20515;-87
2021/07/27 01:06:59;;;;;;;;;;;15.20;99.90;;;;;;5092277;28;19909;-87
2021/07/27 01:09:25;;;;;;;;;;;15.20;99.90;;;;;;5074594;28;19909;-88
2021/07/27 01:11:51;;;;;;;;;;;15.10;99.90;;;;;;5074028;28;21370;-87
2021/07/27 01:14:16;;;;;;;;;;;15.00;99.90;;;;;;5083568;28;19958;-87
2021/07/27 01:16:42;;;;;;;;;;;15.00;99.90;;;;;;5091912;28;19957;-87
2021/07/27 01:38:39;;;;;;;;;;;14.80;99.90;;;;;;5093349;28;19931;-88
2021/07/27 01:43:40;;;;;;;;;;;14.80;99.90;;;;;;5081367;28;19908;-88
2021/07/27 01:46:06;;;;;;;;;;;14.80;99.90;;;;;;5091694;28;19931;-88
2021/07/27 01:48:32;;;;;;;;;;;14.80;99.90;;;;;;5077478;28;19908;-88
2021/07/27 01:50:58;;;;;;;;;;;14.70;99.90;;;;;;5079006;28;19908;-87
2021/07/27 01:53:34;;;;;;;;;;;14.70;99.90;;;;;;5096998;28;19912;-88
2021/07/27 01:55:59;;;;;;;;;;;14.70;99.90;;;;;;5078978;28;19934;-88
2021/07/27 01:58:25;;;;;;;;;;;14.70;99.90;;;;;;5096944;28;20422;-87
2021/07/27 02:00:50;;;;;;;;;;;14.60;99.90;;;;;;5078751;28;19962;-87
2021/07/27 02:03:16;;;;;;;;;;;14.70;99.90;;;;;;5095801;28;19908;-88
2021/07/27 02:05:45;;;;;;;;;;;14.70;99.90;;;;;;5078868;28;20446;-87
2021/07/27 02:08:11;;;;;;;;;;;14.70;99.90;;;;;;5096818;28;19908;-88
2021/07/27 02:10:38;;;;;;;;;;;14.70;99.90;;;;;;5095449;28;20359;-87
2021/07/27 02:13:13;;;;;;;;;;;14.60;99.90;;;;;;5093323;28;19957;-88
2021/07/27 02:15:42;;;;;;;;;;;14.60;99.90;;;;;;5074862;28;20393;-87
2021/07/27 02:18:08;;;;;;;;;;;14.60;99.90;;;;;;5078444;28;19915;-87
2021/07/27 02:20:34;;;;;;;;;;;14.60;99.90;;;;;;5095364;28;19908;-87
2021/07/27 02:22:59;;;;;;;;;;;14.60;99.90;;;;;;5078412;28;19919;-88
2021/07/27 02:25:25;;;;;;;;;;;14.60;99.90;;;;;;5095533;28;19948;-88
2021/07/27 02:27:50;;;;;;;;;;;14.60;99.90;;;;;;5096566;28;19940;-87
2021/07/27 02:30:16;;;;;;;;;;;14.60;99.90;;;;;;5095172;28;19994;-87
2021/07/27 02:32:43;;;;;;;;;;;14.60;99.90;;;;;;5078281;28;20344;-86
2021/07/27 02:35:09;;;;;;;;;;;14.60;99.90;;;;;;5095030;28;19916;-87
2021/07/27 02:37:35;;;;;;;;;;;14.60;99.90;;;;;;5077925;28;20263;-87
2021/07/27 02:40:01;;;;;;;;;;;14.60;99.90;;;;;;5077970;28;19920;-87
2021/07/27 02:42:26;;;;;;;;;;;14.60;99.90;;;;;;5077662;28;19908;-87
2021/07/27 02:44:52;;;;;;;;;;;14.60;99.90;;;;;;5078021;28;20287;-88
2021/07/27 02:47:18;;;;;;;;;;;14.60;99.90;;;;;;5094995;28;19957;-87
2021/07/27 02:49:43;;;;;;;;;;;14.60;99.90;;;;;;5094794;28;19908;-88
2021/07/27 02:52:09;;;;;;;;;;;14.60;99.90;;;;;;5094891;28;19912;-87
2021/07/27 02:54:37;;;;;;;;;;;14.60;99.90;;;;;;5094738;28;20015;-86
2021/07/27 02:57:03;;;;;;;;;;;14.60;99.90;;;;;;5095653;28;19916;-88
2021/07/27 02:59:29;;;;;;;;;;;14.70;99.90;;;;;;5093965;28;19935;-88
2021/07/27 03:01:54;;;;;;;;;;;14.70;99.90;;;;;;5095880;28;19916;-87
2021/07/27 03:04:20;;;;;;;;;;;14.70;99.90;;;;;;5094662;28;20389;-88
2021/07/27 03:06:47;;;;;;;;;;;14.70;99.90;;;;;;5077240;28;19962;-88
2021/07/27 03:09:16;;;;;;;;;;;14.80;99.90;;;;;;5077566;28;20332;-88
2021/07/27 03:11:42;;;;;;;;;;;14.80;99.90;;;;;;5077327;28;20328;-88
2021/07/27 03:14:08;;;;;;;;;;;14.80;99.90;;;;;;5069097;28;19908;-88
2021/07/27 03:16:33;;;;;;;;;;;14.70;99.90;;;;;;5093991;28;19920;-87
2021/07/27 03:18:59;;;;;;;;;;;14.70;99.90;;;;;;5095514;28;19919;-88
2021/07/27 03:21:26;;;;;;;;;;;14.70;99.90;;;;;;5094244;28;20359;-87
2021/07/27 03:23:52;;;;;;;;;;;14.70;99.90;;;;;;5077392;28;19908;-90
2021/07/27 03:26:19;;;;;;;;;;;14.70;99.90;;;;;;5077356;28;19912;-88
2021/07/27 03:28:48;;;;;;;;;;;14.80;99.90;;;;;;5077651;28;19908;-89
2021/07/27 03:31:13;;;;;;;;;;;14.70;99.90;;;;;;5077511;28;19915;-89
2021/07/27 03:33:39;;;;;;;;;;;14.70;99.90;;;;;;5094159;28;19908;-89
2021/07/27 03:36:05;;;;;;;;;;;14.70;99.90;;;;;;5077063;28;19919;-89
2021/07/27 03:38:31;;;;;;;;;;;14.70;99.90;;;;;;5094109;28;19912;-89
2021/07/27 03:41:04;;;;;;;;;;;14.70;99.90;;;;;;5094804;28;19916;-89
2021/07/27 03:43:29;;;;;;;;;;;14.70;99.90;;;;;;5068722;28;19912;-89
2021/07/27 03:45:55;;;;;;;;;;;14.60;99.90;;;;;;5078582;28;20026;-88
2021/07/27 03:48:20;;;;;;;;;;;14.60;99.90;;;;;;5076870;28;19954;-88
2021/07/27 03:50:46;;;;;;;;;;;14.40;99.90;;;;;;5076824;28;19912;-87
2021/07/27 03:53:16;;;;;;;;;;;14.40;99.90;;;;;;5076674;28;19908;-89
2021/07/27 03:55:42;;;;;;;;;;;14.30;99.90;;;;;;5076876;28;19947;-88
2021/07/27 03:58:07;;;;;;;;;;;14.30;99.90;;;;;;5076399;28;19908;-88
2021/07/27 04:00:33;;;;;;;;;;;14.20;99.90;;;;;;5076760;28;19909;-88
2021/07/27 04:03:00;;;;;;;;;;;14.30;99.90;;;;;;5076911;28;20530;-89
2021/07/27 04:05:26;;;;;;;;;;;14.30;99.90;;;;;;5076607;28;19912;-88
2021/07/27 04:07:51;;;;;;;;;;;14.20;99.90;;;;;;5076399;28;20320;-88
2021/07/27 04:10:17;;;;;;;;;;;14.20;99.90;;;;;;5076602;28;19908;-89
2021/07/27 04:12:42;;;;;;;;;;;14.20;99.90;;;;;;5075158;28;20446;-88
2021/07/27 04:15:08;;;;;;;;;;;14.10;99.90;;;;;;5068466;28;19923;-88
2021/07/27 04:17:34;;;;;;;;;;;14.10;99.90;;;;;;5076259;28;19915;-88
2021/07/27 04:19:59;;;;;;;;;;;14.00;99.90;;;;;;5093049;28;19915;-88
2021/07/27 04:22:24;;;;;;;;;;;14.00;99.90;;;;;;5093198;28;20299;-88
2021/07/27 04:24:51;;;;;;;;;;;14.00;99.90;;;;;;5093048;28;20002;-87
2021/07/27 04:27:16;;;;;;;;;;;14.00;99.90;;;;;;5076041;28;19947;-88
2021/07/27 04:29:43;;;;;;;;;;;14.00;99.90;;;;;;5094027;28;20005;-88
2021/07/27 04:32:09;;;;;;;;;;;14.00;99.90;;;;;;5092944;28;19947;-87
2021/07/27 04:34:34;;;;;;;;;;;13.90;99.90;;;;;;5093064;28;20256;-88
2021/07/27 04:37:00;;;;;;;;;;;14.00;99.90;;;;;;5092669;28;20267;-88
2021/07/27 04:39:29;;;;;;;;;;;14.00;99.90;;;;;;5092676;28;19919;-88
2021/07/27 04:41:55;;;;;;;;;;;14.00;99.90;;;;;;5093613;28;19922;-89
2021/07/27 04:44:20;;;;;;;;;;;14.10;99.90;;;;;;5084322;28;20368;-89
2021/07/27 04:46:47;;;;;;;;;;;14.20;99.90;;;;;;5075546;28;19915;-89
2021/07/27 04:49:12;;;;;;;;;;;14.30;99.90;;;;;;5093787;28;20302;-88
2021/07/27 04:51:38;;;;;;;;;;;14.30;99.90;;;;;;5075728;28;19931;-88
2021/07/27 04:54:05;;;;;;;;;;;14.40;99.90;;;;;;5093743;28;20341;-87
2021/07/27 04:56:33;;;;;;;;;;;14.50;99.90;;;;;;5092117;28;19932;-87
2021/07/27 04:59:02;;;;;;;;;;;14.50;99.90;;;;;;5075496;28;20500;-88
2021/07/27 05:01:27;;;;;;;;;;;14.60;99.90;;;;;;5075613;28;19917;-89
2021/07/27 05:03:56;;;;;;;;;;;14.60;99.90;;;;;;5092386;28;19931;-89
2021/07/27 05:06:24;;;;;;;;;;;14.70;99.90;;;;;;5075458;28;19908;-89
2021/07/27 05:08:50;;;;;;;;;;;14.80;99.90;;;;;;5092315;28;19946;-89
2021/07/27 05:11:16;;;;;;;;;;;14.80;99.90;;;;;;5075465;28;19983;-89
2021/07/27 05:13:41;;;;;;;;;;;14.90;99.90;;;;;;5083646;28;19908;-89
2021/07/27 05:16:07;;;;;;;;;;;15.00;99.90;;;;;;5072982;28;20398;-89
2021/07/27 05:18:32;;;;;;;;;;;15.00;99.90;;;;;;5073294;28;19915;-89
2021/07/27 05:20:58;;;;;;;;;;;15.10;99.90;;;;;;5055161;28;19908;-89
2021/07/27 05:23:24;;;;;;;;;;;15.20;99.90;;;;;;5054815;28;19954;-89
2021/07/27 05:25:49;;;;;;;;;;;15.30;99.90;;;;;;5055196;28;20294;-89
2021/07/27 05:28:15;;;;;;;;;;;15.50;99.90;;;;;;5055074;28;19908;-89
2021/07/27 05:30:40;;;;;;;;;;;15.80;99.90;;;;;;5055139;28;19909;-89
2021/07/27 05:33:06;;;;;;;;;;;16.00;99.90;;;;;;5055216;28;19908;-89
2021/07/27 05:35:31;;;;;;;;;;;16.20;99.90;;;;;;5055030;28;20405;-89
2021/07/27 05:37:57;;;;;;;;;;;16.40;99.90;;;;;;5054893;28;19914;-88
2021/07/27 05:40:22;;;;;;;;;;;16.50;99.90;;;;;;5055112;28;20051;-89
2021/07/27 05:42:48;;;;;;;;;;;16.70;99.90;;;;;;5070402;28;19953;-89
2021/07/27 05:45:13;;;;;;;;;;;16.90;99.90;;;;;;5067988;28;20393;-89
2021/07/27 05:47:39;;;;;;;;;;;16.90;99.90;;;;;;5091449;28;19920;-89
2021/07/27 05:50:08;;;;;;;;;;;17.00;99.90;;;;;;5091921;28;20328;-89
2021/07/27 05:52:34;;;;;;;;;;;17.30;99.90;;;;;;5075140;28;19957;-89
2021/07/27 05:54:59;;;;;;;;;;;17.70;99.90;;;;;;5091823;28;20366;-90
2021/07/27 05:57:24;;;;;;;;;;;17.90;99.90;;;;;;5091614;28;19909;-90
2021/07/27 05:59:50;;;;;;;;;;;17.90;99.90;;;;;;5091828;28;19915;-90
2021/07/27 06:02:19;;;;;;;;;;;17.90;99.90;;;;;;5091726;28;19912;-91
2021/07/27 06:04:45;;;;;;;;;;;17.90;99.90;;;;;;5091847;28;19908;-89
2021/07/27 06:07:10;;;;;;;;;;;17.90;99.90;;;;;;5091676;28;19909;-90
2021/07/27 06:09:36;;;;;;;;;;;17.80;99.90;;;;;;5091708;28;20002;-88
2021/07/27 06:12:02;;;;;;;;;;;17.80;99.90;;;;;;5091704;28;20283;-91
2021/07/27 06:14:27;;;;;;;;;;;17.70;99.90;;;;;;5066360;28;19908;-89
2021/07/27 06:16:53;;;;;;;;;;;17.70;99.90;;;;;;5091552;28;20363;-90
2021/07/27 06:19:18;;;;;;;;;;;17.70;99.90;;;;;;5074609;28;19908;-89
2021/07/27 06:21:44;;;;;;;;;;;17.80;99.90;;;;;;5091683;28;20007;-90
2021/07/27 06:24:10;;;;;;;;;;;17.90;99.90;;;;;;5091529;28;19908;-90
2021/07/27 06:26:36;;;;;;;;;;;18.10;99.90;;;;;;5074491;28;19909;-91
2021/07/27 06:29:03;;;;;;;;;;;18.40;99.90;;;;;;5074710;28;19912;-90
2021/07/27 06:31:28;;;;;;;;;;;18.70;99.90;;;;;;5074630;28;20387;-90
2021/07/27 06:33:54;;;;;;;;;;;18.90;99.90;;;;;;5075600;28;19946;-90
2021/07/27 06:36:24;;;;;;;;;;;18.90;99.90;;;;;;5094676;28;20278;-90
2021/07/27 06:38:50;;;;;;;;;;;18.90;99.90;;;;;;5096408;28;19962;-90
2021/07/27 06:41:15;;;;;;;;;;;18.90;99.90;;;;;;5094572;28;19965;-90
2021/07/27 06:43:41;;;;;;;;;;;18.90;99.90;;;;;;5078202;28;19908;-89
2021/07/27 06:46:07;;;;;;;;;;;18.80;99.90;;;;;;5096263;28;19908;-90
2021/07/27 06:48:33;;;;;;;;;;;18.80;99.90;;;;;;5078115;28;20321;-90
2021/07/27 06:51:06;;;;;;;;;;;18.70;99.90;;;;;;5078165;28;20015;-90
2021/07/27 06:53:32;;;;;;;;;;;18.70;99.90;;;;;;5096199;28;20013;-90
2021/07/27 06:55:57;;;;;;;;;;;18.80;99.90;;;;;;5094723;28;19912;-89
2021/07/27 06:58:22;;;;;;;;;;;19.00;99.90;;;;;;5077679;28;19954;-89
2021/07/27 07:00:48;;;;;;;;;;;19.50;99.90;;;;;;5077561;28;19919;-89
2021/07/27 07:03:13;;;;;;;;;;;20.20;99.90;;;;;;5094756;28;19922;-90
2021/07/27 07:05:42;;;;;;;;;;;21.10;99.90;;;;;;5094658;28;19948;-89
2021/07/27 07:08:07;;;;;;;;;;;21.80;99.90;;;;;;5095192;28;19908;-90
2021/07/27 07:10:33;;;;;;;;;;;22.60;99.90;;;;;;5094663;28;20405;-89
2021/07/27 07:12:58;;;;;;;;;;;23.20;99.90;;;;;;5086700;28;19920;-89
2021/07/27 07:15:24;;;;;;;;;;;23.50;99.90;;;;;;5094302;28;19965;-88
2021/07/27 07:17:49;;;;;;;;;;;23.80;99.90;;;;;;5095500;28;19965;-88
2021/07/27 07:20:15;;;;;;;;;;;24.00;99.90;;;;;;5094497;28;19908;-90
2021/07/27 07:22:41;;;;;;;;;;;24.40;99.90;;;;;;5094403;28;19912;-90
2021/07/27 07:25:09;;;;;;;;;;;24.80;99.90;;;;;;5077582;28;20401;-89
2021/07/27 07:27:34;;;;;;;;;;;24.80;99.90;;;;;;5077795;28;19965;-90
2021/07/27 07:30:00;;;;;;;;;;;25.30;99.90;;;;;;5094272;28;19908;-90
2021/07/27 07:32:26;;;;;;;;;;;25.80;99.90;;;;;;5094281;28;19908;-89
2021/07/27 07:34:51;;;;;;;;;;;26.10;99.90;;;;;;5095327;28;19912;-89
2021/07/27 07:37:17;;;;;;;;;;;26.50;99.90;;;;;;5074280;28;19915;-89
2021/07/27 07:39:42;;;;;;;;;;;26.60;99.90;;;;;;5088524;28;19916;-89
2021/07/27 07:42:08;;;;;;;;;;;26.70;99.90;;;;;;5077157;28;19908;-90
2021/07/27 07:44:34;;;;;;;;;;;26.70;99.90;;;;;;5077062;28;19908;-89
2021/07/27 07:46:59;;;;;;;;;;;26.70;99.90;;;;;;5076952;28;19915;-90
2021/07/27 07:49:25;;;;;;;;;;;26.60;99.90;;;;;;5079792;28;19908;-90
2021/07/27 07:51:51;;;;;;;;;;;26.50;99.90;;;;;;5086056;28;19924;-91
2021/07/27 07:54:17;;;;;;;;;;;26.90;99.90;;;;;;5079920;28;19923;-89
2021/07/27 07:56:46;;;;;;;;;;;27.10;99.90;;;;;;5097687;28;19912;-90
2021/07/27 07:59:11;;;;;;;;;;;27.40;99.90;;;;;;5077858;28;19908;-90
2021/07/27 08:01:37;;;;;;;;;;;27.50;99.90;;;;;;5095686;28;20320;-89
2021/07/27 08:04:03;;;;;;;;;;;27.70;99.90;;;;;;5076427;28;19961;-90
2021/07/27 08:06:30;;;;;;;;;;;27.40;99.90;;;;;;5062349;28;19916;-91
2021/07/27 08:08:55;;;;;;;;;;;27.10;99.90;;;;;;5059287;28;19958;-89
2021/07/27 08:11:21;;;;;;;;;;;26.90;99.90;;;;;;5074928;28;20321;-91
2021/07/27 08:13:46;;;;;;;;;;;26.80;99.90;;;;;;5058123;28;20316;-92
2021/07/27 08:16:12;;;;;;;;;;;26.80;99.90;;;;;;5059944;28;19912;-91
2021/07/27 08:18:38;;;;;;;;;;;26.50;99.90;;;;;;5058465;28;20283;-91
2021/07/27 08:21:03;;;;;;;;;;;26.40;99.90;;;;;;5057542;28;20007;-91
2021/07/27 08:23:29;;;;;;;;;;;26.40;99.90;;;;;;5071138;28;19912;-90
2021/07/27 08:25:55;;;;;;;;;;;26.60;99.90;;;;;;5077293;28;19919;-91
2021/07/27 08:28:20;;;;;;;;;;;26.70;99.90;;;;;;5076933;28;19907;-91
2021/07/27 08:30:46;;;;;;;;;;;26.70;99.90;;;;;;5076972;28;19934;-90
2021/07/27 08:33:11;;;;;;;;;;;26.70;99.90;;;;;;5077042;28;19947;-91
2021/07/27 08:35:37;;;;;;;;;;;26.70;99.90;;;;;;5095227;28;19912;-91
2021/07/27 08:38:02;;;;;;;;;;;26.70;99.90;;;;;;5076848;28;20377;-91
2021/07/27 08:40:33;;;;;;;;;;;26.60;99.90;;;;;;5069618;28;19916;-90
2021/07/27 08:43:00;;;;;;;;;;;26.60;99.90;;;;;;5076050;28;19916;-91
2021/07/27 08:45:26;;;;;;;;;;;26.70;99.90;;;;;;5076534;28;19908;-90
2021/07/27 08:47:51;;;;;;;;;;;26.90;99.90;;;;;;5093415;28;19915;-89
2021/07/27 08:50:17;;;;;;;;;;;26.90;99.90;;;;;;5093956;28;19908;-92
2021/07/27 08:52:43;;;;;;;;;;;26.90;99.90;;;;;;5076501;28;19908;-90
2021/07/27 08:55:09;;;;;;;;;;;27.20;99.90;;;;;;5076054;28;20469;-89
2021/07/27 08:57:34;;;;;;;;;;;27.10;98.90;;;;;;5075827;28;19908;-92
2021/07/27 09:00:00;;;;;;;;;;;27.20;99.90;;;;;;5093118;28;19961;-91
2021/07/27 09:02:26;;;;;;;;;;;27.20;99.90;;;;;;5076345;28;19908;-91
2021/07/27 09:05:03;;;;;;;;;;;27.40;99.90;;;;;;5075823;28;19912;-91
2021/07/27 09:07:28;;;;;;;;;;;27.40;96.90;;;;;;5075826;28;20302;-91
2021/07/27 09:09:54;;;;;;;;;;;27.40;99.90;;;;;;5082343;28;20014;-91
2021/07/27 09:12:20;;;;;;;;;;;27.50;99.90;;;;;;5076443;28;19950;-90
2021/07/27 09:14:50;;;;;;;;;;;27.50;98.20;;;;;;5077139;28;19944;-91
2021/07/27 09:17:23;;;;;;;;;;;27.50;99.40;;;;;;5076486;28;19912;-90
2021/07/27 09:19:48;;;;;;;;;;;27.70;99.90;;;;;;5078916;28;19916;-91
2021/07/27 09:22:14;;;;;;;;;;;28.00;99.90;;;;;;5094875;28;19908;-90
2021/07/27 09:24:39;;;;;;;;;;;28.20;97.70;;;;;;5076345;28;19908;-90
2021/07/27 09:27:06;;;;;;;;;;;28.30;99.90;;;;;;5076508;28;19912;-91
2021/07/27 09:29:41;;;;;;;;;;;28.10;99.90;;;;;;5076820;28;19927;-91
2021/07/27 09:32:07;;;;;;;;;;;28.40;99.30;;;;;;5076283;28;19915;-91
2021/07/27 09:34:32;;;;;;;;;;;28.80;98.50;;;;;;5076666;28;19908;-91
2021/07/27 09:37:07;;;;;;;;;;;29.10;97.30;;;;;;5076874;28;19912;-90
2021/07/27 09:39:33;;;;;;;;;;;29.40;98.20;;;;;;5076149;28;20281;-90
2021/07/27 09:41:59;;;;;;;;;;;29.60;95.70;;;;;;5076597;28;19908;-91
2021/07/27 09:44:27;;;;;;;;;;;29.90;95.60;;;;;;5061777;28;20485;-90
2021/07/27 09:46:53;;;;;;;;;;;30.00;96.40;;;;;;5074087;28;20012;-89
2021/07/27 09:49:19;;;;;;;;;;;30.00;94.20;;;;;;5056021;28;19909;-90
2021/07/27 09:51:45;;;;;;;;;;;30.10;94.50;;;;;;5056480;28;19909;-89
2021/07/27 09:54:11;;;;;;;;;;;29.90;91.90;;;;;;5056262;28;19915;-90
2021/07/27 09:56:37;;;;;;;;;;;29.60;94.80;;;;;;5056131;28;20310;-90
2021/07/27 09:59:02;;;;;;;;;;;29.40;95.50;;;;;;5074474;28;19909;-91
2021/07/27 10:01:28;;;;;;;;;;;29.70;94.60;;;;;;5057028;28;19909;-90
2021/07/27 10:04:03;;;;;;;;;;;29.90;95.80;;;;;;5056183;28;19908;-90
2021/07/27 10:06:36;;;;;;;;;;;30.00;92.70;;;;;;5056474;28;19915;-89
2021/07/27 10:09:03;;;;;;;;;;;29.70;90.70;;;;;;5056530;28;19928;-90
2021/07/27 10:11:36;;;;;;;;;;;29.50;95.30;;;;;;5060047;28;19908;-91
2021/07/27 10:14:12;;;;;;;;;;;29.60;94.20;;;;;;5059378;28;19908;-90
2021/07/27 10:16:37;;;;;;;;;;;29.40;94.90;;;;;;5059402;28;19912;-91
2021/07/27 10:19:16;;;;;;;;;;;29.00;92.00;;;;;;5059520;28;19916;-91
2021/07/27 10:21:43;;;;;;;;;;;28.70;95.10;;;;;;5060973;28;20005;-89
2021/07/27 10:24:15;;;;;;;;;;;28.20;93.90;;;;;;5077416;28;20286;-91
2021/07/27 10:38:53;;;;;;;;;;;26.60;94.10;;;;;;5077648;28;19915;-91
2021/07/27 10:44:36;;;;;;;;;;;27.10;94.00;;;;;;5077250;28;19909;-91
2021/07/27 10:47:02;;;;;;;;;;;27.00;96.50;;;;;;5058762;28;19913;-91
2021/07/27 10:49:28;;;;;;;;;;;27.10;95.40;;;;;;5059020;28;19908;-92
2021/07/27 10:52:02;;;;;;;;;;;27.40;97.80;;;;;;5075667;28;19909;-92
2021/07/27 10:54:29;;;;;;;;;;;27.90;95.00;;;;;;5059080;28;19912;-92
2021/07/27 10:57:03;;;;;;;;;;;28.40;95.00;;;;;;5059448;28;19919;-91
2021/07/27 10:59:32;;;;;;;;;;;28.80;92.50;;;;;;5064393;28;19908;-91
2021/07/27 11:01:59;;;;;;;;;;;29.00;91.00;;;;;;5084299;28;19909;-91
2021/07/27 11:04:34;;;;;;;;;;;29.30;96.50;;;;;;5058427;28;19948;-90
2021/07/27 11:07:12;;;;;;;;;;;29.60;93.70;;;;;;5058296;28;20007;-90
2021/07/27 11:09:46;;;;;;;;;;;29.90;91.30;;;;;;5058693;28;19909;-91
2021/07/27 11:12:12;;;;;;;;;;;30.30;91.80;;;;;;5058456;28;19916;-91
2021/07/27 11:14:37;;;;;;;;;;;30.50;94.00;;;;;;5058233;28;19913;-90
2021/07/27 11:17:04;;;;;;;;;;;30.80;93.30;;;;;;5058290;28;20000;-91
2021/07/27 11:19:32;;;;;;;;;;;30.80;92.30;;;;;;5058300;28;19916;-91
2021/07/27 11:21:59;;;;;;;;;;;30.80;90.80;;;;;;5058913;28;19908;-91
2021/07/27 11:24:25;;;;;;;;;;;30.90;88.80;;;;;;5058003;28;19916;-90
2021/07/27 11:26:51;;;;;;;;;;;30.60;86.00;;;;;;5058184;28;19954;-91
2021/07/27 11:29:18;;;;;;;;;;;30.60;90.30;;;;;;5058675;28;19944;-90
2021/07/27 11:31:48;;;;;;;;;;;30.70;87.80;;;;;;5058394;28;19909;-90
2021/07/27 11:34:24;;;;;;;;;;;30.80;88.90;;;;;;5058108;28;19943;-90
2021/07/27 11:36:51;;;;;;;;;;;30.80;91.30;;;;;;5058218;28;19916;-90
2021/07/27 11:39:16;;;;;;;;;;;30.80;89.80;;;;;;5058444;28;19974;-91
2021/07/27 11:41:42;;;;;;;;;;;30.80;90.00;;;;;;5058395;28;20291;-90
2021/07/27 11:44:07;;;;;;;;;;;30.50;84.50;;;;;;5058549;28;20035;-90
2021/07/27 11:46:34;;;;;;;;;;;30.20;91.50;;;;;;5058752;28;20389;-90
2021/07/27 11:49:00;;;;;;;;;;;30.00;89.50;;;;;;5058127;28;19912;-90
2021/07/27 11:51:34;;;;;;;;;;;29.70;88.20;;;;;;5058033;28;19915;-90
2021/07/27 11:54:00;;;;;;;;;;;29.50;91.00;;;;;;5058339;28;19971;-90
2021/07/27 11:56:25;;;;;;;;;;;29.40;91.30;;;;;;5058008;28;19952;-89
2021/07/27 11:59:01;;;;;;;;;;;29.00;87.70;;;;;;5058288;28;19908;-90
2021/07/27 12:01:40;;;;;;;;;;;28.90;91.90;;;;;;5076672;28;19915;-89
2021/07/27 12:04:05;;;;;;;;;;;28.80;89.70;;;;;;5058756;28;19908;-90
2021/07/27 12:06:31;;;;;;;;;;;28.50;92.70;;;;;;5058886;28;19962;-90
2021/07/27 12:09:01;;;;;;;;;;;28.50;93.60;;;;;;5058407;28;20298;-90
2021/07/27 12:11:26;;;;;;;;;;;28.40;93.10;;;;;;5058684;28;20398;-90
2021/07/27 12:13:52;;;;;;;;;;;28.30;92.90;;;;;;5058559;28;19909;-89
2021/07/27 12:16:17;;;;;;;;;;;28.20;93.70;;;;;;5059565;28;20003;-90
2021/07/27 12:18:43;;;;;;;;;;;28.10;93.30;;;;;;5080443;28;19928;-95
2021/07/27 12:21:08;;;;;;;;;;;28.00;94.40;;;;;;5081811;28;19927;-92
2021/07/27 12:23:34;;;;;;;;;;;28.10;94.00;;;;;;5082218;28;19897;-93
2021/07/27 12:26:04;;;;;;;;;;;28.00;93.40;;;;;;5069685;28;19901;-89
2021/07/27 12:28:29;;;;;;;;;;;28.00;90.80;;;;;;5065372;28;20003;-90
2021/07/27 12:30:55;;;;;;;;;;;28.00;94.00;;;;;;5059259;28;19944;-90
2021/07/27 12:33:20;;;;;;;;;;;28.10;93.70;;;;;;5057989;28;19909;-90
2021/07/27 12:35:46;;;;;;;;;;;28.40;93.30;;;;;;5057874;28;19927;-90
2021/07/27 12:38:11;;;;;;;;;;;28.70;92.50;;;;;;5057712;28;19924;-89
2021/07/27 12:40:37;;;;;;;;;;;29.00;90.20;;;;;;5058061;28;19916;-89
2021/07/27 12:43:02;;;;;;;;;;;29.30;92.60;;;;;;5057679;28;19916;-89
2021/07/27 12:45:28;;;;;;;;;;;29.30;91.50;;;;;;5058230;28;19908;-89
2021/07/27 12:47:54;;;;;;;;;;;29.40;93.20;;;;;;5058174;28;20433;-89
2021/07/27 12:50:19;;;;;;;;;;;29.40;91.60;;;;;;5056905;28;19919;-89
2021/07/27 12:56:02;;;;;;;;;;;29.50;89.10;;;;;;5076160;28;19962;-89
2021/07/27 12:58:28;;;;;;;;;;;29.60;91.30;;;;;;5057381;28;19996;-89
2021/07/27 13:00:54;;;;;;;;;;;29.60;87.60;;;;;;5056790;28;20359;-89
2021/07/27 13:03:20;;;;;;;;;;;29.60;91.80;;;;;;5056746;28;19912;-89
2021/07/27 13:05:46;;;;;;;;;;;29.60;89.40;;;;;;5056783;28;19974;-89
2021/07/27 13:08:11;;;;;;;;;;;29.20;89.60;;;;;;5057030;28;20393;-89
2021/07/27 13:10:37;;;;;;;;;;;29.20;92.50;;;;;;5056747;28;19908;-90
2021/07/27 13:13:02;;;;;;;;;;;29.30;92.60;;;;;;5056618;28;20337;-89
2021/07/27 13:15:27;;;;;;;;;;;29.50;91.20;;;;;;5056107;28;20018;-89
2021/07/27 13:17:53;;;;;;;;;;;29.70;91.30;;;;;;5055892;28;19915;-89
2021/07/27 13:20:20;;;;;;;;;;;29.70;90.60;;;;;;5056096;28;19913;-89
2021/07/27 13:22:45;;;;;;;;;;;29.60;92.30;;;;;;5056218;28;19908;-89
2021/07/27 13:25:11;;;;;;;;;;;29.20;90.80;;;;;;5057044;28;20007;-89
2021/07/27 13:27:37;;;;;;;;;;;29.00;91.70;;;;;;5056468;28;19913;-89
2021/07/27 13:30:03;;;;;;;;;;;28.60;91.40;;;;;;5056299;28;19909;-89
2021/07/27 13:32:28;;;;;;;;;;;28.60;91.10;;;;;;5057014;28;19908;-89
2021/07/27 13:34:53;;;;;;;;;;;28.60;93.60;;;;;;5056379;28;19908;-90
2021/07/27 13:37:19;;;;;;;;;;;28.60;90.70;;;;;;5055825;28;20011;-89
2021/07/27 13:39:45;;;;;;;;;;;28.60;92.60;;;;;;5055889;28;20278;-90
2021/07/27 13:42:10;;;;;;;;;;;28.70;92.00;;;;;;5061686;28;19922;-89
2021/07/27 13:44:36;;;;;;;;;;;28.70;92.70;;;;;;5092570;28;19908;-89
2021/07/27 13:47:01;;;;;;;;;;;28.70;90.40;;;;;;5092473;28;20006;-90
2021/07/27 13:49:28;;;;;;;;;;;28.60;92.20;;;;;;5092593;28;20007;-89
2021/07/27 13:51:53;;;;;;;;;;;28.60;94.10;;;;;;5092776;28;20506;-89
2021/07/27 13:54:19;;;;;;;;;;;28.40;90.60;;;;;;5092723;28;19912;-89
2021/07/27 13:56:44;;;;;;;;;;;28.30;91.70;;;;;;5092704;28;20264;-89
2021/07/27 13:59:10;;;;;;;;;;;28.40;94.90;;;;;;5075925;28;20022;-89
2021/07/27 14:01:36;;;;;;;;;;;28.50;93.80;;;;;;5075952;28;19991;-90
2021/07/27 14:04:01;;;;;;;;;;;28.60;91.60;;;;;;5092665;28;19908;-89
2021/07/27 14:06:27;;;;;;;;;;;28.70;92.30;;;;;;5075987;28;19908;-89
2021/07/27 14:09:02;;;;;;;;;;;28.70;92.70;;;;;;5092712;28;20003;-89
2021/07/27 14:11:28;;;;;;;;;;;28.60;90.20;;;;;;5057524;28;19908;-90
2021/07/27 14:13:54;;;;;;;;;;;28.50;91.20;;;;;;5067751;28;20418;-90
2021/07/27 14:16:19;;;;;;;;;;;28.60;92.60;;;;;;5092622;28;19916;-89
2021/07/27 14:18:45;;;;;;;;;;;28.80;93.20;;;;;;5075906;28;19954;-89
2021/07/27 14:21:10;;;;;;;;;;;28.90;93.10;;;;;;5092805;28;19908;-90
2021/07/27 14:23:36;;;;;;;;;;;29.10;93.80;;;;;;5092740;28;19958;-88
2021/07/27 14:26:01;;;;;;;;;;;29.40;93.40;;;;;;5092500;28;19908;-90
2021/07/27 14:28:27;;;;;;;;;;;29.60;90.90;;;;;;5092382;28;19908;-89
2021/07/27 14:30:52;;;;;;;;;;;29.60;92.70;;;;;;5092276;28;19954;-89
2021/07/27 14:33:18;;;;;;;;;;;29.80;91.50;;;;;;5075323;28;20367;-89
2021/07/27 14:35:43;;;;;;;;;;;29.70;90.30;;;;;;5092147;28;19919;-90
2021/07/27 14:38:09;;;;;;;;;;;29.70;91.90;;;;;;5092642;28;20301;-90
2021/07/27 14:40:34;;;;;;;;;;;29.80;94.50;;;;;;5093169;28;20275;-90
2021/07/27 14:43:02;;;;;;;;;;;29.80;91.70;;;;;;5085003;28;20236;-90
2021/07/27 14:45:27;;;;;;;;;;;29.60;91.50;;;;;;5080816;28;19954;-90
2021/07/27 14:47:53;;;;;;;;;;;29.30;91.10;;;;;;5075784;28;19908;-90
2021/07/27 14:50:21;;;;;;;;;;;29.30;92.30;;;;;;5094017;28;20298;-90
2021/07/27 14:52:46;;;;;;;;;;;29.50;91.80;;;;;;5076226;28;19912;-89